Thompsonville, New York
Current Conditions -  °F | °C
As of 5:55 AM on Friday 24 Oct 2014 (Local Time) from KMSV Reporting Station
Overcast Overcast  
Wind Chill: 39°   Ceiling: 800
Heat Index: 45°   Visibility: 10mi
Dew Point: 43°   Wind: 10mph
Humidity: 93%   Direction: 320°NW
Pressure: 29.83"   Gusts: 16mph
Location:  41.67°N, 74.62°W
Report Text: KMSV 240955Z AUTO 32009G14KT 10SM OVC008 07/06 A2983 RMK AO1
Loading
Personal Weather Stations






























Interactive Weather Map
Tropical Storm Tracking
New forecast layout! Learn more

10-Day Weather Forecast

Advertisements
Track Severe Weather on mobile